Time;durP1;ratioP1;P1;durP2;ratioP2;P2;SDS_P1;SDS_P2;PMS_P1;PMS_P2;Temp;Humidity;BMP_temperature;BMP_pressure;BME280_temperature;BME280_humidity;BME280_pressure;Samples;Min_cycle;Max_cycle;Signal;HPM_P1;HPM_P2
2022/08/08 04:41:40;;;;;;;0.40;0.40;;;;;;;;;;7386054;19;20235;-73
2022/08/08 04:44:06;;;;;;;0.85;0.85;;;;;;;;;;7385119;19;20821;-73
2022/08/08 04:46:31;;;;;;;0.60;0.60;;;;;;;;;;7379729;19;20141;-73
2022/08/08 04:48:56;;;;;;;0.40;0.40;;;;;;;;;;7381684;19;20117;-73
2022/08/08 04:51:22;;;;;;;0.30;0.30;;;;;;;;;;7378579;19;20148;-74
2022/08/08 04:53:47;;;;;;;0.30;0.30;;;;;;;;;;7378754;19;20133;-73
2022/08/08 04:56:13;;;;;;;0.32;0.32;;;;;;;;;;7380620;19;20140;-74
2022/08/08 04:58:39;;;;;;;0.30;0.30;;;;;;;;;;7377632;19;20530;-74
2022/08/08 05:01:04;;;;;;;0.73;0.73;;;;;;;;;;7376008;19;20165;-72
2022/08/08 05:03:29;;;;;;;0.40;0.40;;;;;;;;;;7375187;19;20153;-72
2022/08/08 05:05:55;;;;;;;0.75;0.75;;;;;;;;;;7371526;19;20598;-73
2022/08/08 05:08:20;;;;;;;0.50;0.50;;;;;;;;;;7373863;19;20656;-72
2022/08/08 05:10:45;;;;;;;0.60;0.60;;;;;;;;;;7374599;19;20137;-74
2022/08/08 05:13:11;;;;;;;0.30;0.30;;;;;;;;;;7372646;19;20156;-73
2022/08/08 05:15:36;;;;;;;0.22;0.22;;;;;;;;;;7366373;19;20133;-74
2022/08/08 05:18:01;;;;;;;0.30;0.30;;;;;;;;;;7369910;19;20113;-75
2022/08/08 05:20:26;;;;;;;0.20;0.20;;;;;;;;;;7373556;19;20465;-72
2022/08/08 05:22:52;;;;;;;0.20;0.20;;;;;;;;;;7381897;19;20638;-73
2022/08/08 05:25:17;;;;;;;0.30;0.30;;;;;;;;;;7383933;19;20159;-74
2022/08/08 05:27:43;;;;;;;0.22;0.22;;;;;;;;;;7386741;19;20153;-73
2022/08/08 05:30:09;;;;;;;0.57;0.57;;;;;;;;;;7386892;19;20136;-73
2022/08/08 05:32:36;;;;;;;0.30;0.30;;;;;;;;;;7384818;19;20744;-73
2022/08/08 05:35:02;;;;;;;0.30;0.30;;;;;;;;;;7388719;19;20120;-74
2022/08/08 05:37:30;;;;;;;0.30;0.30;;;;;;;;;;7393877;19;20180;-73
2022/08/08 05:39:55;;;;;;;0.30;0.30;;;;;;;;;;7395296;19;20179;-72
2022/08/08 05:42:40;;;;;;;0.30;0.30;;;;;;;;;;7391905;19;20572;-73
2022/08/08 05:45:07;;;;;;;0.30;0.30;;;;;;;;;;7394308;19;20147;-72
2022/08/08 05:47:35;;;;;;;0.20;0.20;;;;;;;;;;7390322;19;20145;-73
2022/08/08 05:50:04;;;;;;;0.70;0.70;;;;;;;;;;7390699;19;20143;-73
2022/08/08 05:52:29;;;;;;;0.30;0.30;;;;;;;;;;7394152;19;20160;-72
2022/08/08 05:54:54;;;;;;;0.30;0.30;;;;;;;;;;7394196;19;20125;-73
2022/08/08 05:57:22;;;;;;;0.40;0.40;;;;;;;;;;7385307;19;20145;-75
2022/08/08 05:59:48;;;;;;;0.30;0.30;;;;;;;;;;7364439;19;22200;-74
2022/08/08 06:05:11;;;;;;;0.30;0.30;;;;;;;;;;7389865;19;20149;-73
2022/08/08 06:07:40;;;;;;;0.20;0.20;;;;;;;;;;7392044;19;20591;-74
2022/08/08 06:10:07;;;;;;;0.40;0.40;;;;;;;;;;7393881;19;20144;-72
2022/08/08 06:12:33;;;;;;;0.30;0.30;;;;;;;;;;7386172;19;20560;-72
2022/08/08 06:15:00;;;;;;;0.40;0.40;;;;;;;;;;7383546;19;20129;-72
2022/08/08 06:17:25;;;;;;;0.30;0.30;;;;;;;;;;7386071;19;20631;-74
2022/08/08 06:19:51;;;;;;;0.30;0.30;;;;;;;;;;7384340;19;20495;-72
2022/08/08 06:22:16;;;;;;;0.77;0.77;;;;;;;;;;7390421;19;20164;-72
2022/08/08 06:24:42;;;;;;;0.30;0.30;;;;;;;;;;7387223;19;20115;-72
2022/08/08 06:27:09;;;;;;;0.90;0.90;;;;;;;;;;7388048;19;20649;-73
2022/08/08 06:29:54;;;;;;;0.40;0.40;;;;;;;;;;7385496;19;20136;-73
2022/08/08 06:32:24;;;;;;;0.30;0.30;;;;;;;;;;7387186;19;20149;-73
2022/08/08 06:34:52;;;;;;;0.50;0.50;;;;;;;;;;7393530;19;20132;-72
2022/08/08 06:37:21;;;;;;;0.35;0.35;;;;;;;;;;7387231;19;20125;-72
2022/08/08 06:39:49;;;;;;;0.40;0.40;;;;;;;;;;7392359;19;20157;-73
2022/08/08 06:42:15;;;;;;;0.30;0.30;;;;;;;;;;7389893;19;20173;-72
2022/08/08 06:44:41;;;;;;;0.30;0.30;;;;;;;;;;7386083;19;20594;-73
2022/08/08 06:47:07;;;;;;;0.30;0.30;;;;;;;;;;7383623;19;20669;-73
2022/08/08 06:49:32;;;;;;;0.50;0.50;;;;;;;;;;7386391;19;20129;-74
2022/08/08 06:51:58;;;;;;;0.30;0.30;;;;;;;;;;7385882;19;20156;-72
2022/08/08 06:54:24;;;;;;;0.30;0.30;;;;;;;;;;7393897;19;20599;-73
2022/08/08 06:56:50;;;;;;;0.60;0.60;;;;;;;;;;7386015;19;20212;-72
2022/08/08 06:59:16;;;;;;;0.30;0.30;;;;;;;;;;7394528;19;20222;-72
2022/08/08 07:01:50;;;;;;;0.30;0.30;;;;;;;;;;7388234;19;20173;-72
2022/08/08 07:04:30;;;;;;;0.73;0.70;;;;;;;;;;7391234;19;20151;-72
2022/08/08 07:06:59;;;;;;;0.30;0.30;;;;;;;;;;7389565;19;20137;-72
2022/08/08 07:09:27;;;;;;;0.50;0.50;;;;;;;;;;7391720;19;20140;-72
2022/08/08 07:11:53;;;;;;;0.30;0.30;;;;;;;;;;7388047;19;20698;-72
2022/08/08 07:14:26;;;;;;;0.47;0.47;;;;;;;;;;7384241;19;20133;-72
2022/08/08 07:17:09;;;;;;;0.30;0.30;;;;;;;;;;7386268;19;20630;-72
2022/08/08 07:19:54;;;;;;;0.30;0.30;;;;;;;;;;7385480;19;20171;-72
2022/08/08 07:22:36;;;;;;;0.30;0.30;;;;;;;;;;7392215;19;20184;-73
2022/08/08 07:25:03;;;;;;;0.43;0.43;;;;;;;;;;7393471;19;20132;-72
2022/08/08 07:27:39;;;;;;;0.30;0.30;;;;;;;;;;7389526;19;20505;-72
2022/08/08 07:30:06;;;;;;;0.85;0.85;;;;;;;;;;7392307;19;20157;-73
2022/08/08 07:32:31;;;;;;;1.75;1.08;;;;;;;;;;7388412;19;20169;-72
2022/08/08 07:34:59;;;;;;;0.30;0.30;;;;;;;;;;7380258;19;20510;-72
2022/08/08 07:37:25;;;;;;;1.65;0.90;;;;;;;;;;7384135;19;20144;-72
2022/08/08 07:39:51;;;;;;;0.47;0.47;;;;;;;;;;7388842;19;20159;-74
2022/08/08 07:42:16;;;;;;;0.32;0.32;;;;;;;;;;7390393;19;20180;-72
2022/08/08 07:44:44;;;;;;;0.40;0.40;;;;;;;;;;7390460;19;20153;-73
2022/08/08 07:47:09;;;;;;;0.30;0.30;;;;;;;;;;7390110;19;20120;-72
2022/08/08 07:49:35;;;;;;;3.30;1.25;;;;;;;;;;7391771;19;20499;-74
2022/08/08 07:52:02;;;;;;;0.30;0.30;;;;;;;;;;7390747;19;20152;-72
2022/08/08 07:54:38;;;;;;;0.35;0.35;;;;;;;;;;7390967;19;20524;-73
2022/08/08 07:57:15;;;;;;;0.45;0.45;;;;;;;;;;7390302;19;20469;-72
2022/08/08 07:59:49;;;;;;;0.60;0.60;;;;;;;;;;7392556;19;20155;-72
2022/08/08 08:02:21;;;;;;;0.40;0.40;;;;;;;;;;7391186;19;20140;-73
2022/08/08 08:04:47;;;;;;;0.40;0.40;;;;;;;;;;7393164;19;20162;-74
2022/08/08 08:07:14;;;;;;;0.40;0.40;;;;;;;;;;7389745;19;20478;-73
2022/08/08 08:09:41;;;;;;;0.30;0.30;;;;;;;;;;7392761;19;20160;-73
2022/08/08 08:12:11;;;;;;;0.30;0.30;;;;;;;;;;7390654;19;20501;-72
2022/08/08 08:14:52;;;;;;;0.40;0.40;;;;;;;;;;7390769;19;20136;-72
2022/08/08 08:17:19;;;;;;;1.15;1.15;;;;;;;;;;7392095;19;20125;-72
2022/08/08 08:19:47;;;;;;;0.40;0.40;;;;;;;;;;7392143;19;20153;-72
2022/08/08 08:22:14;;;;;;;0.32;0.32;;;;;;;;;;7391576;19;20148;-72
2022/08/08 08:24:40;;;;;;;0.50;0.50;;;;;;;;;;7390750;19;20626;-73
2022/08/08 08:27:05;;;;;;;0.30;0.30;;;;;;;;;;7391706;19;20205;-72
2022/08/08 08:29:31;;;;;;;0.50;0.50;;;;;;;;;;7393128;19;20605;-72
2022/08/08 08:31:56;;;;;;;0.73;0.73;;;;;;;;;;7390771;19;20148;-72
2022/08/08 08:34:21;;;;;;;0.32;0.32;;;;;;;;;;7389917;19;20129;-72
2022/08/08 08:36:47;;;;;;;0.30;0.30;;;;;;;;;;7389817;19;20125;-72
2022/08/08 08:39:12;;;;;;;0.95;0.70;;;;;;;;;;7393423;19;20117;-72
2022/08/08 08:41:38;;;;;;;0.32;0.32;;;;;;;;;;7390834;19;20145;-72
2022/08/08 08:44:03;;;;;;;0.32;0.32;;;;;;;;;;7389236;19;20125;-73
2022/08/08 08:46:29;;;;;;;0.55;0.55;;;;;;;;;;7388359;19;20152;-72
2022/08/08 08:48:54;;;;;;;0.60;0.60;;;;;;;;;;7390977;19;20136;-72
2022/08/08 08:51:23;;;;;;;1.50;0.75;;;;;;;;;;7390950;19;20179;-72
2022/08/08 08:53:53;;;;;;;0.52;0.52;;;;;;;;;;7389174;19;20590;-73
2022/08/08 08:56:19;;;;;;;0.30;0.30;;;;;;;;;;7391489;19;20204;-72
2022/08/08 08:58:49;;;;;;;0.30;0.30;;;;;;;;;;7390171;19;20671;-72
2022/08/08 09:01:17;;;;;;;0.57;0.57;;;;;;;;;;7391318;19;20129;-75
2022/08/08 09:03:46;;;;;;;0.30;0.30;;;;;;;;;;7388533;19;20615;-73
2022/08/08 09:06:35;;;;;;;0.40;0.40;;;;;;;;;;7390180;19;20557;-72
2022/08/08 09:09:20;;;;;;;0.50;0.50;;;;;;;;;;7389257;19;20137;-72
2022/08/08 09:11:47;;;;;;;1.15;1.05;;;;;;;;;;7389967;19;20171;-72
2022/08/08 09:14:14;;;;;;;0.30;0.30;;;;;;;;;;7388924;19;20148;-72
2022/08/08 09:16:39;;;;;;;0.40;0.40;;;;;;;;;;7389627;19;20630;-73
2022/08/08 09:19:04;;;;;;;1.75;1.05;;;;;;;;;;7389485;19;20136;-72
2022/08/08 09:21:30;;;;;;;0.40;0.40;;;;;;;;;;7389726;19;20161;-73
2022/08/08 09:23:56;;;;;;;0.43;0.43;;;;;;;;;;7388780;19;20546;-72
2022/08/08 09:26:42;;;;;;;0.40;0.40;;;;;;;;;;7389322;19;20574;-72
2022/08/08 09:29:13;;;;;;;0.40;0.40;;;;;;;;;;7388708;19;20120;-72
2022/08/08 09:31:57;;;;;;;0.38;0.38;;;;;;;;;;7388799;19;20213;-72
2022/08/08 09:34:24;;;;;;;0.60;0.60;;;;;;;;;;7388526;19;20474;-72
2022/08/08 09:36:53;;;;;;;0.70;0.70;;;;;;;;;;7389379;19;20163;-73
2022/08/08 09:39:20;;;;;;;0.80;0.80;;;;;;;;;;7388668;19;20121;-72
2022/08/08 09:42:01;;;;;;;0.68;0.68;;;;;;;;;;7387508;19;20152;-72
2022/08/08 09:44:32;;;;;;;1.67;1.45;;;;;;;;;;7388465;19;20124;-72
2022/08/08 09:47:04;;;;;;;0.30;0.30;;;;;;;;;;7388968;19;20148;-73
2022/08/08 09:49:29;;;;;;;0.43;0.43;;;;;;;;;;7386711;19;20133;-72
2022/08/08 09:51:55;;;;;;;0.32;0.32;;;;;;;;;;7387636;19;20203;-73
2022/08/08 09:54:24;;;;;;;0.30;0.30;;;;;;;;;;7388491;19;20125;-72
2022/08/08 09:56:53;;;;;;;0.40;0.40;;;;;;;;;;7389162;19;20152;-73
2022/08/08 09:59:31;;;;;;;0.32;0.32;;;;;;;;;;7389647;19;20151;-73
2022/08/08 10:01:59;;;;;;;0.60;0.60;;;;;;;;;;7387426;19;20161;-73
2022/08/08 10:04:26;;;;;;;0.30;0.30;;;;;;;;;;7386829;19;20144;-73
2022/08/08 10:06:52;;;;;;;0.40;0.40;;;;;;;;;;7387607;19;20145;-74
2022/08/08 10:09:29;;;;;;;0.93;0.60;;;;;;;;;;7387891;19;20605;-72
2022/08/08 10:11:55;;;;;;;0.80;0.77;;;;;;;;;;7387745;19;20152;-73
2022/08/08 10:14:30;;;;;;;0.40;0.40;;;;;;;;;;7386431;19;20130;-74
2022/08/08 10:16:55;;;;;;;0.40;0.40;;;;;;;;;;7388872;19;20129;-74
2022/08/08 10:19:20;;;;;;;0.45;0.45;;;;;;;;;;7386929;19;20157;-72
2022/08/08 10:21:49;;;;;;;0.55;0.50;;;;;;;;;;7393542;19;20536;-73
2022/08/08 10:24:14;;;;;;;0.47;0.47;;;;;;;;;;7393036;19;20133;-73
2022/08/08 10:26:47;;;;;;;0.30;0.30;;;;;;;;;;7395035;19;20133;-73
2022/08/08 10:29:13;;;;;;;0.88;0.88;;;;;;;;;;7394260;19;20140;-74
2022/08/08 10:34:27;;;;;;;0.40;0.40;;;;;;;;;;7395560;19;20131;-74
2022/08/08 10:36:53;;;;;;;0.30;0.30;;;;;;;;;;7395523;19;20496;-72
2022/08/08 10:39:24;;;;;;;0.40;0.40;;;;;;;;;;7394785;19;20125;-73
2022/08/08 10:41:57;;;;;;;0.40;0.40;;;;;;;;;;7394158;19;20661;-73
2022/08/08 10:44:34;;;;;;;0.52;0.52;;;;;;;;;;7394529;19;20157;-73
2022/08/08 10:47:16;;;;;;;0.55;0.50;;;;;;;;;;7393750;19;20603;-73
2022/08/08 10:49:49;;;;;;;3.30;0.77;;;;;;;;;;7394823;19;20125;-72
2022/08/08 10:52:36;;;;;;;1.40;0.60;;;;;;;;;;7393429;19;20677;-74
2022/08/08 10:55:06;;;;;;;0.40;0.40;;;;;;;;;;7393792;19;20615;-73
2022/08/08 10:57:36;;;;;;;0.65;0.65;;;;;;;;;;7395128;19;20163;-73
2022/08/08 11:00:02;;;;;;;0.40;0.40;;;;;;;;;;7393533;19;20623;-73
2022/08/08 11:02:32;;;;;;;0.40;0.40;;;;;;;;;;7390860;19;20176;-73
2022/08/08 11:05:05;;;;;;;0.30;0.30;;;;;;;;;;7393675;19;20472;-73
2022/08/08 11:07:41;;;;;;;0.30;0.30;;;;;;;;;;7391147;19;20141;-73
2022/08/08 11:10:09;;;;;;;0.40;0.40;;;;;;;;;;7394358;19;20132;-73
2022/08/08 11:12:45;;;;;;;0.40;0.40;;;;;;;;;;7392331;19;20553;-73
2022/08/08 11:15:16;;;;;;;0.30;0.30;;;;;;;;;;7393641;19;20136;-73
2022/08/08 11:17:42;;;;;;;0.32;0.32;;;;;;;;;;7394402;19;20148;-73
2022/08/08 11:20:09;;;;;;;0.30;0.30;;;;;;;;;;7393664;19;20160;-74
2022/08/08 11:22:35;;;;;;;0.28;0.28;;;;;;;;;;7391649;19;20197;-73
2022/08/08 11:25:03;;;;;;;0.30;0.30;;;;;;;;;;7394009;19;20136;-73
2022/08/08 11:27:31;;;;;;;1.08;0.98;;;;;;;;;;7390171;19;20128;-73
2022/08/08 11:29:57;;;;;;;0.40;0.40;;;;;;;;;;7395684;19;20455;-73
2022/08/08 11:32:30;;;;;;;0.43;0.43;;;;;;;;;;7389029;19;20467;-73
2022/08/08 11:35:03;;;;;;;0.45;0.45;;;;;;;;;;7392678;19;20129;-73
2022/08/08 11:37:28;;;;;;;0.52;0.52;;;;;;;;;;7393448;19;20139;-73
2022/08/08 11:39:55;;;;;;;0.35;0.35;;;;;;;;;;7393378;19;20177;-73
2022/08/08 11:42:20;;;;;;;0.40;0.40;;;;;;;;;;7391746;19;20172;-73
2022/08/08 11:44:46;;;;;;;0.40;0.40;;;;;;;;;;7391289;19;20184;-73
2022/08/08 11:47:12;;;;;;;0.45;0.45;;;;;;;;;;7391381;19;20208;-73
2022/08/08 11:49:39;;;;;;;0.63;0.60;;;;;;;;;;7393058;19;20161;-73
2022/08/08 11:52:05;;;;;;;0.50;0.50;;;;;;;;;;7392325;19;20160;-73
2022/08/08 11:54:33;;;;;;;0.65;0.65;;;;;;;;;;7390048;19;20174;-73
2022/08/08 11:57:16;;;;;;;0.40;0.40;;;;;;;;;;7393516;19;20134;-73
2022/08/08 12:00:12;;;;;;;0.50;0.50;;;;;;;;;;7394493;19;20132;-73
2022/08/08 12:02:48;;;;;;;0.50;0.50;;;;;;;;;;7391428;19;20264;-73
2022/08/08 12:05:15;;;;;;;0.50;0.50;;;;;;;;;;7393785;19;20124;-72
2022/08/08 12:07:51;;;;;;;0.50;0.50;;;;;;;;;;7390152;19;20162;-73
2022/08/08 12:10:18;;;;;;;0.50;0.50;;;;;;;;;;7393264;19;20136;-73
2022/08/08 12:12:45;;;;;;;0.50;0.50;;;;;;;;;;7390063;19;20152;-73
2022/08/08 12:15:12;;;;;;;0.50;0.50;;;;;;;;;;7391450;19;20124;-73
2022/08/08 12:17:40;;;;;;;0.47;0.47;;;;;;;;;;7391018;19;20163;-73
2022/08/08 12:20:06;;;;;;;0.50;0.50;;;;;;;;;;7392698;19;20159;-73
2022/08/08 12:22:31;;;;;;;0.60;0.60;;;;;;;;;;7389621;19;20179;-73
2022/08/08 12:24:58;;;;;;;0.80;0.70;;;;;;;;;;7392168;19;20124;-72
2022/08/08 12:27:23;;;;;;;0.50;0.50;;;;;;;;;;7389572;19;20654;-73
2022/08/08 12:29:57;;;;;;;1.17;1.02;;;;;;;;;;7392109;19;20154;-71
2022/08/08 12:32:23;;;;;;;0.60;0.60;;;;;;;;;;7389835;19;20140;-72
2022/08/08 12:34:56;;;;;;;0.52;0.52;;;;;;;;;;7390822;19;20116;-72
2022/08/08 12:37:25;;;;;;;0.50;0.50;;;;;;;;;;7391710;19;20120;-71
2022/08/08 12:39:51;;;;;;;0.60;0.60;;;;;;;;;;7391160;19;20159;-72
2022/08/08 12:42:16;;;;;;;0.50;0.50;;;;;;;;;;7389423;19;20176;-71
2022/08/08 12:44:42;;;;;;;0.50;0.50;;;;;;;;;;7388735;19;20113;-71
2022/08/08 12:47:08;;;;;;;0.60;0.60;;;;;;;;;;7389662;19;20464;-72
2022/08/08 12:49:35;;;;;;;0.50;0.50;;;;;;;;;;7393352;19;20124;-71
2022/08/08 12:52:02;;;;;;;0.50;0.50;;;;;;;;;;7389048;19;20201;-71
2022/08/08 12:54:31;;;;;;;0.70;0.70;;;;;;;;;;7390427;19;20594;-71
2022/08/08 12:56:56;;;;;;;0.50;0.50;;;;;;;;;;7391836;19;20449;-71
2022/08/08 12:59:23;;;;;;;0.50;0.50;;;;;;;;;;7391900;19;20661;-71
2022/08/08 13:01:51;;;;;;;0.60;0.60;;;;;;;;;;7391475;19;20515;-71
2022/08/08 13:04:19;;;;;;;0.50;0.50;;;;;;;;;;7390158;19;20134;-71
2022/08/08 13:06:52;;;;;;;0.50;0.50;;;;;;;;;;7390227;19;20646;-71
2022/08/08 13:09:28;;;;;;;0.40;0.40;;;;;;;;;;7391474;19;20617;-71
2022/08/08 13:11:53;;;;;;;0.50;0.50;;;;;;;;;;7390163;19;20148;-71
2022/08/08 13:14:19;;;;;;;0.50;0.50;;;;;;;;;;7389167;19;20152;-71
2022/08/08 13:16:44;;;;;;;0.50;0.50;;;;;;;;;;7391784;19;20143;-71
2022/08/08 13:19:09;;;;;;;0.50;0.50;;;;;;;;;;7389998;19;20141;-72
2022/08/08 13:21:45;;;;;;;0.40;0.40;;;;;;;;;;7389688;19;20154;-71
2022/08/08 13:24:11;;;;;;;0.60;0.60;;;;;;;;;;7388412;19;20117;-71
2022/08/08 13:26:37;;;;;;;0.50;0.50;;;;;;;;;;7389211;19;20140;-71
2022/08/08 13:29:10;;;;;;;0.95;0.95;;;;;;;;;;7389378;19;20116;-70
2022/08/08 13:31:48;;;;;;;0.50;0.50;;;;;;;;;;7387579;19;20155;-71
2022/08/08 13:34:20;;;;;;;0.60;0.60;;;;;;;;;;7389011;19;20120;-71
2022/08/08 13:36:46;;;;;;;0.50;0.50;;;;;;;;;;7389596;19;21589;-72
2022/08/08 13:39:16;;;;;;;0.40;0.40;;;;;;;;;;7389468;19;20148;-72
2022/08/08 13:41:48;;;;;;;0.55;0.55;;;;;;;;;;7388784;19;20144;-71
2022/08/08 13:44:14;;;;;;;0.50;0.50;;;;;;;;;;7388139;19;20125;-71
2022/08/08 13:46:51;;;;;;;0.50;0.50;;;;;;;;;;7387632;19;20597;-71
2022/08/08 13:49:17;;;;;;;0.50;0.50;;;;;;;;;;7389558;19;20225;-71
2022/08/08 13:51:53;;;;;;;0.50;0.50;;;;;;;;;;7387678;19;20152;-72
2022/08/08 13:54:22;;;;;;;0.40;0.40;;;;;;;;;;7389768;19;20145;-72
2022/08/08 13:56:59;;;;;;;0.60;0.60;;;;;;;;;;7394864;19;20214;-71
2022/08/08 13:59:47;;;;;;;0.40;0.40;;;;;;;;;;7395311;19;20148;-71
2022/08/08 14:02:21;;;;;;;0.40;0.40;;;;;;;;;;7394970;19;20242;-71
2022/08/08 14:04:55;;;;;;;0.50;0.50;;;;;;;;;;7395530;19;20141;-71
2022/08/08 14:07:22;;;;;;;0.77;0.77;;;;;;;;;;7395072;19;20132;-71
2022/08/08 14:09:47;;;;;;;0.50;0.50;;;;;;;;;;7397384;19;20125;-71
2022/08/08 14:12:14;;;;;;;0.50;0.50;;;;;;;;;;7395197;19;20145;-71
2022/08/08 14:14:41;;;;;;;0.40;0.40;;;;;;;;;;7393971;19;20125;-72
2022/08/08 14:17:08;;;;;;;2.97;0.63;;;;;;;;;;7394818;19;20144;-71
2022/08/08 14:19:41;;;;;;;0.60;0.60;;;;;;;;;;7394700;19;20555;-71
2022/08/08 14:22:21;;;;;;;0.50;0.50;;;;;;;;;;7395175;19;20149;-71
2022/08/08 14:24:47;;;;;;;0.40;0.40;;;;;;;;;;7394965;19;20164;-71
2022/08/08 14:27:24;;;;;;;0.40;0.40;;;;;;;;;;7392651;19;20590;-71
2022/08/08 14:29:59;;;;;;;0.40;0.40;;;;;;;;;;7395572;19;20132;-71
2022/08/08 14:32:24;;;;;;;0.30;0.30;;;;;;;;;;7395176;19;20165;-71
2022/08/08 14:34:54;;;;;;;0.40;0.40;;;;;;;;;;7395473;19;20121;-70
2022/08/08 14:37:21;;;;;;;0.40;0.40;;;;;;;;;;7394896;19;20131;-70
2022/08/08 14:39:51;;;;;;;0.60;0.60;;;;;;;;;;7395138;19;20591;-70
2022/08/08 14:42:49;;;;;;;0.50;0.50;;;;;;;;;;7392759;19;20590;-71
2022/08/08 14:45:15;;;;;;;0.60;0.60;;;;;;;;;;7391666;19;20137;-70
2022/08/08 14:47:46;;;;;;;0.52;0.52;;;;;;;;;;7392271;19;20129;-71
2022/08/08 14:50:14;;;;;;;0.30;0.30;;;;;;;;;;7395066;19;20148;-71
2022/08/08 14:52:44;;;;;;;0.40;0.40;;;;;;;;;;7393009;19;20153;-70
2022/08/08 14:55:10;;;;;;;0.40;0.40;;;;;;;;;;7394597;19;20603;-70
2022/08/08 14:57:36;;;;;;;0.45;0.45;;;;;;;;;;7394962;19;20125;-70
2022/08/08 15:00:03;;;;;;;0.30;0.30;;;;;;;;;;7393733;19;20125;-71
2022/08/08 15:02:28;;;;;;;0.40;0.40;;;;;;;;;;7392572;19;20662;-70
2022/08/08 15:04:53;;;;;;;0.40;0.40;;;;;;;;;;7396356;19;20121;-70
2022/08/08 15:07:20;;;;;;;0.40;0.40;;;;;;;;;;7391417;19;20507;-72
2022/08/08 15:09:46;;;;;;;0.50;0.50;;;;;;;;;;7394431;19;20901;-70
2022/08/08 15:12:12;;;;;;;0.50;0.50;;;;;;;;;;7394646;19;20153;-70
2022/08/08 15:14:37;;;;;;;0.30;0.30;;;;;;;;;;7391628;19;20640;-71
2022/08/08 15:17:03;;;;;;;0.73;0.65;;;;;;;;;;7395075;19;20141;-70
2022/08/08 15:19:28;;;;;;;0.40;0.40;;;;;;;;;;7395423;19;20579;-70
2022/08/08 15:21:53;;;;;;;0.30;0.30;;;;;;;;;;7392462;19;20639;-71
2022/08/08 15:24:18;;;;;;;1.27;1.13;;;;;;;;;;7393510;19;20136;-71
2022/08/08 15:26:44;;;;;;;0.40;0.40;;;;;;;;;;7393920;19;20128;-70
2022/08/08 15:29:10;;;;;;;0.40;0.40;;;;;;;;;;7393531;19;20113;-70
2022/08/08 15:31:36;;;;;;;0.50;0.50;;;;;;;;;;7391485;19;20184;-71
2022/08/08 15:34:02;;;;;;;0.32;0.32;;;;;;;;;;7389915;19;20128;-70
2022/08/08 15:36:27;;;;;;;0.30;0.30;;;;;;;;;;7388781;19;20168;-70
2022/08/08 15:38:53;;;;;;;0.40;0.40;;;;;;;;;;7392175;19;20483;-70
2022/08/08 15:41:19;;;;;;;0.30;0.30;;;;;;;;;;7388521;19;20590;-70
2022/08/08 15:43:44;;;;;;;0.40;0.40;;;;;;;;;;7389152;19;20117;-70
2022/08/08 15:46:09;;;;;;;0.40;0.40;;;;;;;;;;7388494;19;20257;-70
2022/08/08 15:48:35;;;;;;;0.70;0.70;;;;;;;;;;7385938;19;20113;-69
2022/08/08 15:51:00;;;;;;;0.38;0.38;;;;;;;;;;7387852;19;20128;-69
2022/08/08 15:53:27;;;;;;;0.30;0.30;;;;;;;;;;7385116;19;20153;-69
2022/08/08 15:55:55;;;;;;;0.30;0.30;;;;;;;;;;7386200;19;20116;-69
2022/08/08 15:58:20;;;;;;;0.50;0.50;;;;;;;;;;7385907;19;20188;-69
2022/08/08 16:00:46;;;;;;;0.45;0.45;;;;;;;;;;7386260;19;20713;-69
2022/08/08 16:03:11;;;;;;;0.47;0.47;;;;;;;;;;7386788;19;20179;-69
2022/08/08 16:05:40;;;;;;;0.50;0.50;;;;;;;;;;7374277;19;20132;-70
2022/08/08 16:08:06;;;;;;;0.40;0.40;;;;;;;;;;7374816;19;20816;-70
2022/08/08 16:10:31;;;;;;;0.50;0.50;;;;;;;;;;7372552;19;20141;-69
2022/08/08 16:12:58;;;;;;;0.63;0.63;;;;;;;;;;7377746;19;20221;-69
2022/08/08 16:15:23;;;;;;;0.38;0.38;;;;;;;;;;7374069;19;20133;-70
2022/08/08 16:17:49;;;;;;;0.40;0.40;;;;;;;;;;7379622;19;20205;-70
2022/08/08 16:20:14;;;;;;;0.47;0.47;;;;;;;;;;7385453;19;20117;-69
2022/08/08 16:22:39;;;;;;;0.30;0.30;;;;;;;;;;7385951;19;20156;-72
2022/08/08 16:25:05;;;;;;;0.30;0.30;;;;;;;;;;7374652;19;20753;-71
2022/08/08 16:27:31;;;;;;;0.40;0.40;;;;;;;;;;7381793;19;20498;-72
2022/08/08 16:29:56;;;;;;;0.50;0.50;;;;;;;;;;7388517;19;20459;-71
2022/08/08 16:32:21;;;;;;;0.40;0.40;;;;;;;;;;7387920;19;20145;-72
2022/08/08 16:34:47;;;;;;;0.32;0.32;;;;;;;;;;7379113;19;20128;-71
2022/08/08 16:37:12;;;;;;;0.85;0.52;;;;;;;;;;7382292;19;20126;-71
2022/08/08 16:39:37;;;;;;;0.30;0.30;;;;;;;;;;7388063;19;20230;-72
2022/08/08 16:42:03;;;;;;;0.30;0.30;;;;;;;;;;7386445;19;20226;-72
2022/08/08 16:44:29;;;;;;;0.40;0.40;;;;;;;;;;7381085;19;20121;-71
